createdAt,value
2022-10-01T00:05:01.701Z,15.30
2022-10-01T00:10:07.207Z,15.35
2022-10-01T00:15:13.564Z,14.73
2022-10-01T00:20:17.892Z,15.30
2022-10-01T00:25:22.597Z,15.13
2022-10-01T00:30:28.081Z,14.70
2022-10-01T00:35:32.103Z,14.30
2022-10-01T00:40:36.385Z,16.60
2022-10-01T00:45:42.596Z,16.02
2022-10-01T00:50:49.909Z,15.00
2022-10-01T00:55:56.984Z,15.48
2022-10-01T01:01:02.489Z,15.00
2022-10-01T01:06:10.666Z,15.00
2022-10-01T01:11:24.376Z,14.57
2022-10-01T01:16:36.297Z,13.60
2022-10-01T01:21:45.109Z,14.68
2022-10-01T01:27:17.152Z,14.43
2022-10-01T01:32:28.317Z,14.70
2022-10-01T01:37:37.225Z,15.50
2022-10-01T01:42:44.755Z,15.13
2022-10-01T01:47:51.625Z,14.75
2022-10-01T01:52:55.758Z,16.52
2022-10-01T01:58:00.605Z,15.13
2022-10-01T02:03:06.847Z,15.10
2022-10-01T02:08:28.560Z,16.10
2022-10-01T02:13:41.597Z,15.70
2022-10-01T02:19:14.922Z,14.25
2022-10-01T02:24:34.161Z,14.40
2022-10-01T02:29:42.285Z,13.65
2022-10-01T02:34:49.481Z,14.20
2022-10-01T02:39:57.157Z,14.27
2022-10-01T02:45:02.496Z,14.55
2022-10-01T02:50:10.704Z,14.20
2022-10-01T02:55:17.051Z,13.98
2022-10-01T03:00:22.532Z,13.52
2022-10-01T03:05:28.981Z,12.63
2022-10-01T03:10:32.285Z,12.55
2022-10-01T03:15:36.396Z,12.15
2022-10-01T03:20:41.890Z,11.63
2022-10-01T03:25:46.066Z,10.98
2022-10-01T03:30:50.342Z,10.57
2022-10-01T03:35:55.918Z,9.77
2022-10-01T03:41:00.172Z,9.85
2022-10-01T03:46:04.576Z,9.32
2022-10-01T03:51:10.244Z,8.55
2022-10-01T03:56:14.305Z,9.25
2022-10-01T04:01:18.579Z,10.32
2022-10-01T04:06:24.352Z,9.52
2022-10-01T04:11:28.054Z,10.20
2022-10-01T04:16:32.750Z,8.70
2022-10-01T04:21:39.934Z,8.57
2022-10-01T04:26:43.994Z,8.73
2022-10-01T04:31:48.312Z,8.52
2022-10-01T04:36:53.845Z,8.27
2022-10-01T04:41:57.929Z,7.47
2022-10-01T04:47:02.041Z,7.50
2022-10-01T04:52:07.830Z,7.25
2022-10-01T04:57:13.045Z,7.05
2022-10-01T05:02:18.247Z,6.25
2022-10-01T05:07:23.802Z,6.10
2022-10-01T05:12:27.168Z,5.97
2022-10-01T05:17:33.823Z,5.70
2022-10-01T05:22:38.793Z,6.53
2022-10-01T05:27:43.118Z,5.90
2022-10-01T05:32:56.167Z,5.85
2022-10-01T05:38:03.502Z,6.57
2022-10-01T05:43:06.773Z,4.40
2022-10-01T05:48:11.760Z,4.25
2022-10-01T05:53:16.705Z,4.05
2022-10-01T05:58:20.786Z,3.60
2022-10-01T06:03:24.301Z,3.63
2022-10-01T06:08:29.806Z,3.33
2022-10-01T06:13:33.351Z,2.97
2022-10-01T06:18:37.399Z,3.50
2022-10-01T06:23:44.393Z,3.20
2022-10-01T06:28:51.779Z,2.53
2022-10-01T06:33:55.115Z,2.80
2022-10-01T06:39:00.918Z,2.80
2022-10-01T06:44:04.330Z,2.72
2022-10-01T06:49:08.519Z,2.50
2022-10-01T06:54:14.660Z,2.70
2022-10-01T06:59:18.813Z,2.97
2022-10-01T07:04:22.642Z,2.67
2022-10-01T07:09:27.773Z,2.50
2022-10-01T07:14:31.098Z,2.72
2022-10-01T07:19:36.395Z,2.80
2022-10-01T07:24:41.099Z,2.85
2022-10-01T07:29:45.876Z,2.70
2022-10-01T07:34:49.239Z,2.72
2022-10-01T07:39:54.732Z,2.35
2022-10-01T07:44:58.353Z,2.83
2022-10-01T07:50:02.360Z,3.10
2022-10-01T07:55:11.203Z,3.80
2022-10-01T08:00:15.456Z,2.10
2022-10-01T08:05:20.266Z,2.38
2022-10-01T08:10:25.057Z,3.78
2022-10-01T08:15:28.572Z,3.65
2022-10-01T08:20:32.656Z,4.27
2022-10-01T08:25:37.993Z,4.82
2022-10-01T08:30:43.284Z,5.00
2022-10-01T08:35:46.775Z,4.80
2022-10-01T08:40:52.638Z,6.23
2022-10-01T08:45:59.957Z,6.82
2022-10-01T08:51:07.278Z,8.20
2022-10-01T08:56:20.910Z,7.00
2022-10-01T09:01:24.358Z,10.97
2022-10-01T09:06:29.479Z,12.47
2022-10-01T09:11:45.828Z,13.13
2022-10-01T09:16:57.784Z,10.27
2022-10-01T09:22:05.097Z,11.45
2022-10-01T09:27:16.249Z,12.02
2022-10-01T09:32:23.248Z,17.00
2022-10-01T09:37:33.354Z,13.77
2022-10-01T09:42:38.099Z,14.35
2022-10-01T09:47:43.881Z,17.83
2022-10-01T09:52:51.883Z,18.08
2022-10-01T09:58:02.923Z,15.18
2022-10-01T10:03:06.710Z,19.23
2022-10-01T10:08:15.457Z,16.20
2022-10-01T10:13:26.662Z,17.25
2022-10-01T10:18:34.729Z,17.50
2022-10-01T10:23:48.391Z,18.63
2022-10-01T10:28:53.209Z,20.85
2022-10-01T10:34:06.998Z,24.20
2022-10-01T10:39:21.506Z,18.95
2022-10-01T10:44:30.402Z,19.90
2022-10-01T10:49:37.733Z,13.98
2022-10-01T10:54:47.984Z,16.85
2022-10-01T11:00:00.963Z,13.52
2022-10-01T11:05:16.959Z,11.80
2022-10-01T11:10:30.775Z,14.38
2022-10-01T11:15:49.671Z,16.80
2022-10-01T11:21:09.126Z,11.85
2022-10-01T11:26:22.456Z,16.27
2022-10-01T11:31:38.163Z,11.20
2022-10-01T11:36:49.197Z,19.15
2022-10-01T11:41:59.818Z,11.77
2022-10-01T11:47:09.792Z,10.23
2022-10-01T11:52:22.305Z,9.32
2022-10-01T11:57:51.062Z,9.60
2022-10-01T12:03:01.977Z,6.40
2022-10-01T12:08:14.356Z,5.20
2022-10-01T12:13:29.218Z,6.45
2022-10-01T12:18:46.597Z,5.43
2022-10-01T12:23:55.878Z,4.43
2022-10-01T12:29:09.070Z,5.53
2022-10-01T12:34:23.821Z,5.30
2022-10-01T12:39:45.344Z,8.73
2022-10-01T12:45:03.437Z,6.65
2022-10-01T12:50:23.478Z,6.00
2022-10-01T12:55:47.271Z,8.70
2022-10-01T13:01:06.004Z,12.05
2022-10-01T13:06:25.759Z,10.55
2022-10-01T13:11:44.985Z,13.45
2022-10-01T13:16:57.796Z,14.27
2022-10-01T13:22:15.020Z,12.20
2022-10-01T13:27:24.552Z,12.57
2022-10-01T13:32:32.344Z,11.55
2022-10-01T13:37:40.810Z,11.88
2022-10-01T13:42:47.134Z,11.90
2022-10-01T13:47:51.928Z,12.02
2022-10-01T13:53:07.581Z,12.75
2022-10-01T13:58:25.077Z,12.00
2022-10-01T14:03:46.365Z,12.20
2022-10-01T14:08:55.860Z,13.45
2022-10-01T14:14:22.836Z,15.57
2022-10-01T14:19:29.855Z,15.63
2022-10-01T14:24:50.447Z,16.52
2022-10-01T14:30:06.025Z,15.68
2022-10-01T14:35:30.498Z,15.70
2022-10-01T14:40:41.094Z,15.98
2022-10-01T14:45:53.823Z,15.45
2022-10-01T14:51:00.613Z,16.00
2022-10-01T14:56:09.052Z,15.38
2022-10-01T15:01:19.848Z,13.82
2022-10-01T15:06:28.925Z,14.05
2022-10-01T15:11:38.939Z,16.05
2022-10-01T15:16:45.681Z,16.17
2022-10-01T15:21:52.702Z,16.45
2022-10-01T15:26:59.599Z,18.45
2022-10-01T15:32:05.469Z,19.27
2022-10-01T15:37:16.199Z,19.13
2022-10-01T15:42:30.740Z,27.13
2022-10-01T15:47:36.365Z,20.70
2022-10-01T15:52:52.163Z,20.20
2022-10-01T15:58:04.316Z,20.23
2022-10-01T16:03:07.842Z,19.67
2022-10-01T16:08:22.640Z,20.90
2022-10-01T16:13:38.800Z,50.17
2022-10-01T16:18:43.870Z,39.13
2022-10-01T16:23:49.644Z,23.23
2022-10-01T16:28:58.947Z,39.75
2022-10-01T16:34:03.001Z,22.90
2022-10-01T16:39:08.807Z,19.88
2022-10-01T16:44:15.016Z,20.48
2022-10-01T16:49:19.227Z,17.17
2022-10-01T16:54:32.359Z,18.95
2022-10-01T16:59:37.976Z,18.03
2022-10-01T17:04:41.821Z,19.08
2022-10-01T17:09:46.044Z,27.05
2022-10-01T17:14:51.357Z,30.48
2022-10-01T17:19:56.428Z,28.77
2022-10-01T17:24:59.906Z,24.38
2022-10-01T17:30:06.213Z,26.00
2022-10-01T17:35:13.828Z,24.23
2022-10-01T17:40:18.723Z,24.08
2022-10-01T17:45:24.974Z,23.48
2022-10-01T17:50:32.278Z,22.85
2022-10-01T17:55:37.263Z,22.88
2022-10-01T18:00:43.945Z,23.73
2022-10-01T18:05:48.557Z,22.50
2022-10-01T18:16:03.035Z,23.52
2022-10-01T18:21:09.353Z,23.27
2022-10-01T18:26:15.258Z,24.92
2022-10-01T18:31:24.853Z,24.02
2022-10-01T18:36:44.284Z,24.60
2022-10-01T18:41:49.484Z,25.20
2022-10-01T18:47:19.150Z,25.77
2022-10-01T18:52:35.874Z,25.27
2022-10-01T18:57:59.239Z,22.48
2022-10-01T19:03:37.484Z,28.48
2022-10-01T19:09:06.690Z,32.42
2022-10-01T19:14:34.763Z,30.27
2022-10-01T19:19:53.651Z,27.02
2022-10-01T19:25:08.728Z,27.25
2022-10-01T19:30:15.437Z,23.60
2022-10-01T19:35:23.414Z,22.80
2022-10-01T19:40:33.648Z,19.75
2022-10-01T19:45:46.850Z,13.20
2022-10-01T19:50:58.866Z,13.98
2022-10-01T19:56:04.345Z,12.70
2022-10-01T20:01:11.877Z,9.43
2022-10-01T20:06:23.563Z,10.45
2022-10-01T20:11:31.445Z,9.50
2022-10-01T20:16:41.521Z,8.38
2022-10-01T20:21:59.509Z,8.63
2022-10-01T20:27:12.410Z,8.02
2022-10-01T20:32:21.895Z,8.13
2022-10-01T20:37:44.296Z,8.75
2022-10-01T20:42:51.489Z,9.82
2022-10-01T20:48:00.960Z,11.35
2022-10-01T20:53:30.991Z,9.65
2022-10-01T20:58:44.308Z,9.75
2022-10-01T21:03:53.063Z,10.63
2022-10-01T21:09:02.893Z,11.00
2022-10-01T21:14:13.949Z,11.40
2022-10-01T21:19:29.190Z,9.32
2022-10-01T21:24:57.618Z,9.00
2022-10-01T21:30:13.131Z,9.80
2022-10-01T21:35:27.255Z,9.30
2022-10-01T21:40:44.955Z,10.90
2022-10-01T21:45:57.758Z,10.30
2022-10-01T21:51:08.351Z,10.20
2022-10-01T21:56:38.070Z,8.52
2022-10-01T22:02:05.967Z,9.50
2022-10-01T22:07:18.977Z,8.40
2022-10-01T22:12:28.100Z,7.38
2022-10-01T22:17:35.564Z,7.07
2022-10-01T22:22:40.257Z,6.38
2022-10-01T22:32:57.393Z,5.53
2022-10-01T22:38:09.524Z,5.20
2022-10-01T22:43:15.405Z,5.32
2022-10-01T22:48:36.283Z,5.18
2022-10-01T22:53:54.414Z,4.95
2022-10-01T22:59:10.172Z,5.45
2022-10-01T23:04:33.143Z,5.28
2022-10-01T23:09:42.054Z,5.57
2022-10-01T23:14:59.603Z,5.72
2022-10-01T23:20:18.459Z,6.55
2022-10-01T23:25:35.829Z,5.72
2022-10-01T23:30:53.652Z,6.65
2022-10-01T23:36:06.923Z,5.97
2022-10-01T23:41:17.177Z,6.30
2022-10-01T23:46:29.548Z,5.63
2022-10-01T23:51:39.948Z,5.95
2022-10-01T23:56:52.922Z,5.10
